Time;durP1;ratioP1;P1;durP2;ratioP2;P2;SDS_P1;SDS_P2;PMS_P1;PMS_P2;Temp;Humidity;BMP_temperature;BMP_pressure;BME280_temperature;BME280_humidity;BME280_pressure;Samples;Min_cycle;Max_cycle;Signal;HPM_P1;HPM_P2
2021/07/13 00:02:24;;;;;;;6.75;5.88;;;;;;;;;;4966223;28;20039;-76
2021/07/13 00:04:50;;;;;;;8.20;5.50;;;;;;;;;;4966613;28;20037;-76
2021/07/13 00:07:16;;;;;;;8.88;5.63;;;;;;;;;;4959458;28;20055;-76
2021/07/13 00:09:41;;;;;;;9.02;5.82;;;;;;;;;;4963485;28;20069;-76
2021/07/13 00:12:09;;;;;;;12.80;6.85;;;;;;;;;;4966343;28;20035;-78
2021/07/13 00:14:35;;;;;;;9.90;6.75;;;;;;;;;;4968635;28;20050;-77
2021/07/13 00:17:02;;;;;;;9.98;6.65;;;;;;;;;;4962319;28;20138;-77
2021/07/13 00:19:28;;;;;;;11.93;7.53;;;;;;;;;;4950010;28;20031;-79
2021/07/13 00:21:53;;;;;;;9.45;7.10;;;;;;;;;;4967494;28;20122;-77
2021/07/13 00:24:19;;;;;;;13.25;7.20;;;;;;;;;;4950628;28;20036;-78
2021/07/13 00:26:44;;;;;;;15.75;6.97;;;;;;;;;;4966501;28;20031;-78
2021/07/13 00:29:10;;;;;;;13.93;6.93;;;;;;;;;;4966825;28;20031;-75
2021/07/13 00:31:35;;;;;;;11.82;7.03;;;;;;;;;;4950327;28;20122;-76
2021/07/13 00:34:02;;;;;;;13.93;6.88;;;;;;;;;;4976293;28;20063;-76
2021/07/13 00:36:28;;;;;;;9.30;6.03;;;;;;;;;;4951477;28;20031;-76
2021/07/13 00:38:53;;;;;;;10.35;6.78;;;;;;;;;;4967822;28;20038;-76
2021/07/13 00:41:18;;;;;;;10.27;6.38;;;;;;;;;;4971211;28;20055;-76
2021/07/13 00:43:44;;;;;;;9.60;6.00;;;;;;;;;;4970561;28;20109;-77
2021/07/13 00:46:11;;;;;;;9.35;6.18;;;;;;;;;;4966187;28;20027;-76
2021/07/13 00:48:37;;;;;;;14.75;6.15;;;;;;;;;;4971778;28;20054;-75
2021/07/13 00:51:03;;;;;;;8.63;5.90;;;;;;;;;;4954420;28;20038;-78
2021/07/13 00:53:29;;;;;;;9.73;5.90;;;;;;;;;;4973013;28;20109;-76
2021/07/13 00:55:57;;;;;;;12.45;5.97;;;;;;;;;;4972871;28;20031;-76
2021/07/13 00:58:24;;;;;;;11.20;6.45;;;;;;;;;;4968710;28;20449;-75
2021/07/13 01:00:49;;;;;;;9.35;6.30;;;;;;;;;;4981626;28;20078;-76
2021/07/13 01:03:15;;;;;;;12.02;6.88;;;;;;;;;;4965414;28;20061;-76
2021/07/13 01:05:44;;;;;;;10.93;6.70;;;;;;;;;;4969788;28;20027;-76
2021/07/13 01:08:21;;;;;;;9.95;6.53;;;;;;;;;;4970604;28;20030;-76
2021/07/13 01:11:11;;;;;;;11.32;6.82;;;;;;;;;;4969462;28;20046;-76
2021/07/13 01:14:06;;;;;;;11.05;5.90;;;;;;;;;;4969643;28;20425;-76
2021/07/13 01:17:15;;;;;;;7.85;5.88;;;;;;;;;;4962182;28;20106;-76
2021/07/13 01:19:56;;;;;;;12.52;5.57;;;;;;;;;;4969402;28;20402;-76
2021/07/13 01:22:30;;;;;;;10.27;5.72;;;;;;;;;;4969391;28;20022;-76
2021/07/13 01:25:08;;;;;;;11.45;6.30;;;;;;;;;;4971186;28;20053;-76
2021/07/13 01:27:48;;;;;;;8.75;5.50;;;;;;;;;;4969113;28;20465;-76
2021/07/13 01:30:19;;;;;;;8.85;4.90;;;;;;;;;;4971805;28;20097;-75
2021/07/13 01:32:49;;;;;;;11.57;5.93;;;;;;;;;;4971099;28;20275;-76
2021/07/13 01:35:21;;;;;;;7.90;5.28;;;;;;;;;;4971288;28;20037;-76
2021/07/13 01:37:51;;;;;;;9.25;5.22;;;;;;;;;;4969592;28;20027;-76
2021/07/13 01:40:18;;;;;;;9.25;5.60;;;;;;;;;;4969790;28;20398;-76
2021/07/13 01:42:44;;;;;;;13.40;6.00;;;;;;;;;;4967958;28;20035;-77
2021/07/13 01:45:10;;;;;;;9.90;4.82;;;;;;;;;;4970921;28;20041;-76
2021/07/13 01:47:37;;;;;;;10.27;5.40;;;;;;;;;;4969114;28;20035;-76
2021/07/13 01:50:05;;;;;;;12.07;5.25;;;;;;;;;;4987757;28;20606;-76
2021/07/13 01:52:33;;;;;;;8.10;5.20;;;;;;;;;;4968362;28;20465;-76
2021/07/13 01:54:59;;;;;;;10.85;5.10;;;;;;;;;;4969548;28;20023;-76
2021/07/13 01:57:27;;;;;;;7.32;5.07;;;;;;;;;;4952723;28;20121;-76
2021/07/13 01:59:53;;;;;;;13.80;5.30;;;;;;;;;;4966270;28;20109;-76
2021/07/13 02:02:19;;;;;;;7.55;5.50;;;;;;;;;;4969892;28;20549;-76
2021/07/13 02:04:47;;;;;;;7.28;5.07;;;;;;;;;;4969105;28;20066;-76
2021/07/13 02:07:13;;;;;;;9.95;5.38;;;;;;;;;;4968933;28;20031;-76
2021/07/13 02:09:42;;;;;;;8.68;5.05;;;;;;;;;;4969362;28;20118;-76
2021/07/13 02:12:08;;;;;;;8.40;5.82;;;;;;;;;;4970115;28;20688;-76
2021/07/13 02:14:35;;;;;;;8.60;5.30;;;;;;;;;;4967342;28;20042;-77
2021/07/13 02:17:00;;;;;;;8.95;5.18;;;;;;;;;;4969917;28;20101;-76
2021/07/13 02:19:27;;;;;;;9.88;5.65;;;;;;;;;;4970076;28;20541;-76
2021/07/13 02:21:54;;;;;;;8.77;5.05;;;;;;;;;;4966267;28;20130;-76
2021/07/13 02:24:20;;;;;;;11.02;5.25;;;;;;;;;;4968104;28;20034;-76
2021/07/13 02:27:19;;;;;;;8.40;5.43;;;;;;;;;;4969067;28;20397;-75
2021/07/13 02:29:55;;;;;;;9.65;5.28;;;;;;;;;;4925809;28;20038;-76
2021/07/13 02:32:32;;;;;;;11.23;5.43;;;;;;;;;;4966857;28;20099;-76
2021/07/13 02:34:59;;;;;;;10.98;5.57;;;;;;;;;;4970288;28;20370;-76
2021/07/13 02:37:26;;;;;;;10.40;5.93;;;;;;;;;;4970630;28;20034;-76
2021/07/13 02:39:51;;;;;;;8.77;5.70;;;;;;;;;;4953267;28;20034;-76
2021/07/13 02:42:18;;;;;;;8.00;5.03;;;;;;;;;;4970416;28;20050;-76
2021/07/13 02:44:47;;;;;;;9.95;5.40;;;;;;;;;;4967039;28;20034;-76
2021/07/13 02:47:14;;;;;;;10.07;5.43;;;;;;;;;;4969945;28;20493;-76
2021/07/13 02:49:46;;;;;;;8.23;5.80;;;;;;;;;;4966837;28;20418;-76
2021/07/13 02:52:15;;;;;;;9.35;5.88;;;;;;;;;;4965390;28;20113;-76
2021/07/13 02:54:41;;;;;;;10.57;5.60;;;;;;;;;;4970228;28;20026;-75
2021/07/13 02:57:08;;;;;;;11.00;5.60;;;;;;;;;;4968024;28;20031;-76
2021/07/13 02:59:37;;;;;;;11.93;6.55;;;;;;;;;;4966774;28;20564;-77
2021/07/13 03:02:03;;;;;;;9.45;5.60;;;;;;;;;;4967665;28;20347;-77
2021/07/13 03:04:29;;;;;;;11.40;6.35;;;;;;;;;;4965144;28;20081;-75
2021/07/13 03:06:56;;;;;;;10.10;6.18;;;;;;;;;;4965799;28;20039;-75
2021/07/13 03:09:22;;;;;;;11.35;6.10;;;;;;;;;;4964399;28;20748;-75
2021/07/13 03:11:48;;;;;;;9.02;5.63;;;;;;;;;;4968106;28;20015;-75
2021/07/13 03:14:17;;;;;;;11.52;5.97;;;;;;;;;;4962181;28;20035;-75
2021/07/13 03:16:44;;;;;;;9.55;6.03;;;;;;;;;;4968159;28;20054;-77
2021/07/13 03:19:11;;;;;;;9.73;6.13;;;;;;;;;;4969511;28;20097;-75
2021/07/13 03:21:40;;;;;;;11.45;6.20;;;;;;;;;;4966262;28;20109;-76
2021/07/13 03:24:07;;;;;;;8.65;5.95;;;;;;;;;;4969002;28;20490;-75
2021/07/13 03:26:37;;;;;;;11.20;6.13;;;;;;;;;;4969686;28;20492;-76
2021/07/13 03:29:03;;;;;;;12.10;6.47;;;;;;;;;;4960509;28;20023;-76
2021/07/13 03:31:30;;;;;;;14.38;6.63;;;;;;;;;;4967541;28;20530;-76
2021/07/13 03:33:57;;;;;;;8.20;6.03;;;;;;;;;;4967079;28;20120;-75
2021/07/13 03:36:24;;;;;;;10.32;6.07;;;;;;;;;;4967744;28;20041;-76
2021/07/13 03:38:50;;;;;;;11.35;6.93;;;;;;;;;;4968388;28;20034;-76
2021/07/13 03:41:16;;;;;;;10.02;6.40;;;;;;;;;;4967713;28;20545;-76
2021/07/13 03:43:42;;;;;;;12.90;5.90;;;;;;;;;;4972327;28;20026;-75
2021/07/13 03:46:08;;;;;;;12.57;6.35;;;;;;;;;;4966063;28;20073;-76
2021/07/13 03:48:36;;;;;;;12.43;6.28;;;;;;;;;;4968977;28;20041;-77
2021/07/13 03:51:01;;;;;;;9.95;6.53;;;;;;;;;;4968407;28;20062;-78
2021/07/13 03:53:27;;;;;;;10.70;7.20;;;;;;;;;;4969170;28;20061;-76
2021/07/13 03:55:52;;;;;;;10.98;7.18;;;;;;;;;;4967141;28;20136;-77
2021/07/13 03:58:18;;;;;;;12.18;7.78;;;;;;;;;;4965486;28;20035;-77
2021/07/13 04:00:43;;;;;;;16.00;7.30;;;;;;;;;;4967476;28;20126;-76
2021/07/13 04:03:09;;;;;;;15.70;7.97;;;;;;;;;;4970728;28;20046;-77
2021/07/13 04:05:35;;;;;;;16.90;7.40;;;;;;;;;;4950568;28;20537;-76
2021/07/13 04:08:01;;;;;;;14.20;7.88;;;;;;;;;;4967429;28;20039;-76
2021/07/13 04:10:27;;;;;;;15.68;8.57;;;;;;;;;;4969257;28;20038;-76
2021/07/13 04:12:52;;;;;;;13.43;7.57;;;;;;;;;;4967473;28;20019;-77
2021/07/13 04:15:18;;;;;;;11.48;7.07;;;;;;;;;;4967591;28;20084;-77
2021/07/13 04:17:43;;;;;;;12.45;7.03;;;;;;;;;;4970420;28;20133;-77
2021/07/13 04:20:11;;;;;;;17.23;8.38;;;;;;;;;;4970681;28;20034;-78
2021/07/13 04:22:37;;;;;;;13.82;8.88;;;;;;;;;;4970414;28;20086;-77
2021/07/13 04:25:04;;;;;;;17.25;9.27;;;;;;;;;;4936948;28;20043;-76
2021/07/13 04:27:30;;;;;;;16.30;8.63;;;;;;;;;;4970601;28;20573;-76
2021/07/13 04:29:55;;;;;;;14.82;8.38;;;;;;;;;;4971991;28;20118;-77
2021/07/13 04:32:21;;;;;;;12.20;7.88;;;;;;;;;;4953523;28;20031;-76
2021/07/13 04:34:46;;;;;;;11.55;8.05;;;;;;;;;;4971262;28;20081;-76
2021/07/13 04:37:12;;;;;;;17.65;7.72;;;;;;;;;;4969229;28;20738;-77
2021/07/13 04:39:37;;;;;;;17.70;8.38;;;;;;;;;;4972657;28;20066;-76
2021/07/13 04:42:03;;;;;;;16.52;8.70;;;;;;;;;;4971088;28;20101;-76
2021/07/13 04:44:29;;;;;;;16.90;7.75;;;;;;;;;;4970244;28;20058;-76
2021/07/13 04:46:54;;;;;;;12.18;7.47;;;;;;;;;;4983792;28;20034;-76
2021/07/13 04:49:20;;;;;;;15.45;7.97;;;;;;;;;;4970791;28;20118;-76
2021/07/13 04:51:46;;;;;;;13.65;7.63;;;;;;;;;;4969531;28;20023;-77
2021/07/13 04:54:11;;;;;;;15.18;7.32;;;;;;;;;;4972750;28;20045;-77
2021/07/13 04:56:37;;;;;;;15.70;7.70;;;;;;;;;;4971609;28;20133;-77
2021/07/13 04:59:02;;;;;;;12.32;6.88;;;;;;;;;;4971729;28;20062;-77
2021/07/13 05:01:28;;;;;;;12.48;7.07;;;;;;;;;;4946688;28;20401;-77
2021/07/13 05:03:54;;;;;;;17.10;7.55;;;;;;;;;;4969310;28;20034;-76
2021/07/13 05:06:20;;;;;;;10.82;6.05;;;;;;;;;;4971849;28;20022;-77
2021/07/13 05:08:46;;;;;;;14.98;8.35;;;;;;;;;;4972456;28;20026;-76
2021/07/13 05:11:11;;;;;;;10.75;6.95;;;;;;;;;;4970248;28;20401;-76
2021/07/13 05:13:37;;;;;;;12.15;6.30;;;;;;;;;;4970433;28;20093;-76
2021/07/13 05:16:03;;;;;;;15.82;7.03;;;;;;;;;;4968596;28;20066;-76
2021/07/13 05:18:29;;;;;;;12.10;6.65;;;;;;;;;;4965358;28;20034;-76
2021/07/13 05:21:00;;;;;;;10.43;6.82;;;;;;;;;;4970873;28;20031;-77
2021/07/13 05:23:26;;;;;;;14.60;7.17;;;;;;;;;;4970150;28;20061;-77
2021/07/13 05:25:52;;;;;;;9.57;6.97;;;;;;;;;;4938230;28;20304;-77
2021/07/13 05:28:17;;;;;;;13.07;6.50;;;;;;;;;;4964340;28;20023;-76
2021/07/13 05:30:45;;;;;;;13.43;6.90;;;;;;;;;;4971775;28;20030;-77
2021/07/13 05:33:12;;;;;;;14.07;7.25;;;;;;;;;;4964976;28;20031;-77
2021/07/13 05:35:37;;;;;;;9.80;6.30;;;;;;;;;;4970947;28;20506;-76
2021/07/13 05:38:04;;;;;;;12.05;6.80;;;;;;;;;;4966658;28;20090;-76
2021/07/13 05:40:30;;;;;;;10.90;6.78;;;;;;;;;;4967415;28;20074;-76
2021/07/13 05:42:55;;;;;;;8.70;6.65;;;;;;;;;;4970160;28;20474;-77
2021/07/13 05:45:22;;;;;;;13.48;7.00;;;;;;;;;;4969686;28;20039;-77
2021/07/13 05:47:47;;;;;;;10.35;6.97;;;;;;;;;;4969214;28;20438;-76
2021/07/13 05:50:13;;;;;;;10.23;6.70;;;;;;;;;;4971287;28;20035;-76
2021/07/13 05:52:39;;;;;;;11.13;6.85;;;;;;;;;;4948549;28;20050;-77
2021/07/13 05:55:06;;;;;;;14.55;7.47;;;;;;;;;;4983437;28;20039;-77
2021/07/13 05:57:32;;;;;;;12.52;7.93;;;;;;;;;;4967021;28;20494;-77
2021/07/13 05:59:58;;;;;;;14.93;7.28;;;;;;;;;;4969773;28;20038;-77
2021/07/13 06:02:23;;;;;;;10.77;7.32;;;;;;;;;;4969357;28;20093;-77
2021/07/13 06:04:49;;;;;;;13.27;6.68;;;;;;;;;;4953156;28;20042;-76
2021/07/13 06:07:15;;;;;;;10.63;6.78;;;;;;;;;;4966715;28;20038;-76
2021/07/13 06:09:40;;;;;;;11.70;7.03;;;;;;;;;;4968568;28;20027;-77
2021/07/13 06:12:06;;;;;;;11.57;7.10;;;;;;;;;;4969281;28;20056;-77
2021/07/13 06:14:36;;;;;;;12.55;6.88;;;;;;;;;;4950303;28;20019;-83
2021/07/13 06:17:02;;;;;;;11.98;7.10;;;;;;;;;;4954755;28;20138;-83
2021/07/13 06:19:27;;;;;;;14.10;7.50;;;;;;;;;;4950556;28;20182;-82
2021/07/13 06:21:53;;;;;;;9.85;6.35;;;;;;;;;;4950308;28;20053;-82
2021/07/13 06:24:18;;;;;;;12.07;6.30;;;;;;;;;;4967770;28;20497;-82
2021/07/13 06:26:44;;;;;;;12.95;6.78;;;;;;;;;;4966501;28;20037;-83
2021/07/13 06:29:09;;;;;;;14.63;7.60;;;;;;;;;;4969868;28;20516;-83
2021/07/13 06:31:35;;;;;;;12.18;7.10;;;;;;;;;;4970284;28;20086;-81
2021/07/13 06:34:00;;;;;;;12.10;7.32;;;;;;;;;;4966924;28;20034;-81
2021/07/13 06:36:26;;;;;;;10.65;7.00;;;;;;;;;;4968971;28;20081;-82
2021/07/13 06:38:51;;;;;;;13.93;8.68;;;;;;;;;;4969294;28;20489;-82
2021/07/13 06:41:17;;;;;;;12.48;7.53;;;;;;;;;;4969639;28;20041;-81
2021/07/13 06:43:42;;;;;;;12.05;6.70;;;;;;;;;;4969795;28;20034;-76
2021/07/13 06:46:08;;;;;;;12.82;6.20;;;;;;;;;;4970074;28;20034;-76
2021/07/13 06:48:33;;;;;;;14.02;7.00;;;;;;;;;;4948562;28;20035;-76
2021/07/13 06:50:59;;;;;;;13.15;7.40;;;;;;;;;;4980696;28;20023;-76
2021/07/13 06:53:25;;;;;;;9.48;5.93;;;;;;;;;;4945591;28;20487;-76
2021/07/13 06:55:51;;;;;;;12.82;7.18;;;;;;;;;;4966766;28;20081;-74
2021/07/13 06:58:16;;;;;;;9.00;6.63;;;;;;;;;;4971501;28;20405;-76
2021/07/13 07:00:42;;;;;;;10.02;6.97;;;;;;;;;;4971383;28;20031;-76
2021/07/13 07:03:07;;;;;;;14.18;7.75;;;;;;;;;;4970758;28;20815;-76
2021/07/13 07:05:33;;;;;;;17.23;7.20;;;;;;;;;;4966246;28;20126;-76
2021/07/13 07:07:58;;;;;;;10.40;7.32;;;;;;;;;;4966433;28;20579;-76
2021/07/13 07:10:25;;;;;;;15.00;7.53;;;;;;;;;;4963664;28;20149;-76
2021/07/13 07:12:51;;;;;;;11.35;6.15;;;;;;;;;;4968485;28;20034;-84
2021/07/13 07:15:17;;;;;;;13.27;7.53;;;;;;;;;;4966422;28;20037;-83
2021/07/13 07:17:48;;;;;;;13.52;7.78;;;;;;;;;;4964472;28;20055;-81
2021/07/13 07:20:15;;;;;;;11.15;7.15;;;;;;;;;;4968941;28;20711;-81
2021/07/13 07:22:41;;;;;;;9.50;6.32;;;;;;;;;;4964675;28;20037;-83
2021/07/13 07:25:08;;;;;;;12.88;7.10;;;;;;;;;;4970123;28;20486;-82
2021/07/13 07:27:34;;;;;;;12.48;6.15;;;;;;;;;;4972053;28;20046;-82
2021/07/13 07:30:00;;;;;;;6.55;5.20;;;;;;;;;;4964657;28;20085;-82
2021/07/13 07:32:26;;;;;;;13.27;6.25;;;;;;;;;;4963968;28;20031;-82
2021/07/13 07:34:51;;;;;;;11.40;7.97;;;;;;;;;;4964631;28;20225;-82
2021/07/13 07:37:17;;;;;;;8.30;5.78;;;;;;;;;;4951736;28;20042;-82
2021/07/13 07:39:42;;;;;;;12.85;6.22;;;;;;;;;;4968467;28;20745;-83
2021/07/13 07:42:08;;;;;;;10.88;5.63;;;;;;;;;;4969100;28;20046;-82
2021/07/13 07:44:34;;;;;;;11.98;6.53;;;;;;;;;;4969059;28;20421;-76
2021/07/13 07:46:59;;;;;;;10.05;5.68;;;;;;;;;;4967921;28;20055;-76
2021/07/13 07:49:25;;;;;;;8.85;5.80;;;;;;;;;;4966060;28;20035;-77
2021/07/13 07:51:51;;;;;;;9.20;5.97;;;;;;;;;;4970149;28;20031;-76
2021/07/13 07:54:16;;;;;;;10.75;6.32;;;;;;;;;;4969092;28;20034;-76
2021/07/13 07:56:42;;;;;;;8.02;5.38;;;;;;;;;;4950955;28;20118;-76
2021/07/13 07:59:07;;;;;;;11.98;6.30;;;;;;;;;;4960526;28;20486;-75
2021/07/13 08:01:33;;;;;;;10.15;6.28;;;;;;;;;;4940385;28;20039;-76
2021/07/13 08:03:58;;;;;;;7.82;5.20;;;;;;;;;;4966909;28;20066;-76
2021/07/13 08:06:24;;;;;;;6.93;5.35;;;;;;;;;;4947346;28;20037;-76
2021/07/13 08:08:49;;;;;;;13.52;5.85;;;;;;;;;;4951768;28;20039;-77
2021/07/13 08:11:15;;;;;;;15.85;6.35;;;;;;;;;;4950640;28;20045;-76
2021/07/13 08:13:40;;;;;;;10.57;5.80;;;;;;;;;;4967560;28;20031;-77
2021/07/13 08:16:06;;;;;;;10.88;5.35;;;;;;;;;;4964526;28;20065;-76
2021/07/13 08:18:31;;;;;;;11.10;5.78;;;;;;;;;;4968025;28;20027;-76
2021/07/13 08:20:59;;;;;;;9.10;5.63;;;;;;;;;;4964482;28;20039;-76
2021/07/13 08:23:24;;;;;;;8.73;5.30;;;;;;;;;;4982058;28;20054;-76
2021/07/13 08:25:50;;;;;;;11.07;5.25;;;;;;;;;;4966044;28;20545;-76
2021/07/13 08:28:15;;;;;;;10.98;5.82;;;;;;;;;;4967615;28;20046;-76
2021/07/13 08:30:41;;;;;;;7.28;4.90;;;;;;;;;;4950781;28;20039;-76
2021/07/13 08:33:06;;;;;;;6.88;5.00;;;;;;;;;;4967995;28;20623;-76
2021/07/13 08:35:32;;;;;;;7.80;4.70;;;;;;;;;;4967186;28;20035;-75
2021/07/13 08:37:57;;;;;;;9.32;5.13;;;;;;;;;;4980791;28;20042;-76
2021/07/13 08:40:24;;;;;;;11.13;5.18;;;;;;;;;;4965825;28;20102;-75
2021/07/13 08:42:49;;;;;;;9.60;4.72;;;;;;;;;;4985059;28;20505;-81
2021/07/13 08:45:18;;;;;;;6.60;4.50;;;;;;;;;;4969694;28;20093;-81
2021/07/13 08:47:45;;;;;;;8.10;4.80;;;;;;;;;;4963700;28;20039;-82
2021/07/13 08:50:14;;;;;;;9.68;5.45;;;;;;;;;;4950184;28;20034;-82
2021/07/13 08:52:40;;;;;;;9.55;4.57;;;;;;;;;;4966084;28;20065;-83
2021/07/13 08:55:07;;;;;;;8.57;4.97;;;;;;;;;;4969043;28;20486;-81
2021/07/13 08:57:32;;;;;;;6.22;4.63;;;;;;;;;;4967646;28;20061;-82
2021/07/13 08:59:58;;;;;;;9.40;4.75;;;;;;;;;;4967915;28;20030;-82
2021/07/13 09:02:23;;;;;;;9.18;4.65;;;;;;;;;;4977922;28;20031;-82
2021/07/13 09:04:49;;;;;;;8.52;5.03;;;;;;;;;;4974698;28;20031;-83
2021/07/13 09:07:18;;;;;;;9.85;4.85;;;;;;;;;;4971498;28;20161;-82
2021/07/13 09:09:51;;;;;;;5.18;4.35;;;;;;;;;;4972591;28;20030;-82
2021/07/13 09:12:18;;;;;;;7.22;4.85;;;;;;;;;;4970650;28;20023;-82
2021/07/13 09:14:58;;;;;;;9.23;4.93;;;;;;;;;;4970579;28;20022;-76
2021/07/13 09:17:37;;;;;;;12.68;5.28;;;;;;;;;;4970708;28;20043;-76
2021/07/13 09:20:03;;;;;;;11.95;5.20;;;;;;;;;;4969496;28;20146;-75
2021/07/13 09:22:29;;;;;;;10.07;4.97;;;;;;;;;;4967987;28;20748;-75
2021/07/13 09:24:55;;;;;;;11.05;4.35;;;;;;;;;;4967293;28;20038;-75
2021/07/13 09:27:22;;;;;;;12.52;4.90;;;;;;;;;;4968299;28;20528;-77
2021/07/13 09:29:49;;;;;;;9.55;4.70;;;;;;;;;;4970175;28;20030;-76
2021/07/13 09:32:31;;;;;;;10.13;4.88;;;;;;;;;;4971235;28;20033;-76
2021/07/13 09:34:59;;;;;;;8.68;4.25;;;;;;;;;;4971075;28;20078;-77
2021/07/13 09:37:26;;;;;;;15.73;4.72;;;;;;;;;;4970424;28;20145;-76
2021/07/13 09:39:55;;;;;;;9.10;5.10;;;;;;;;;;4969615;28;20410;-77
2021/07/13 09:42:25;;;;;;;8.43;5.05;;;;;;;;;;4969199;28;20030;-76
2021/07/13 09:44:51;;;;;;;8.07;5.10;;;;;;;;;;4968494;28;20067;-75
2021/07/13 09:47:29;;;;;;;8.57;4.75;;;;;;;;;;4968990;28;20039;-76
2021/07/13 09:49:55;;;;;;;6.70;4.85;;;;;;;;;;4981990;28;20094;-76
2021/07/13 09:52:25;;;;;;;13.23;6.43;;;;;;;;;;4938213;28;20514;-76
2021/07/13 09:54:51;;;;;;;10.32;5.18;;;;;;;;;;4970597;28;20089;-75
2021/07/13 09:57:19;;;;;;;6.13;4.70;;;;;;;;;;4966838;28;20027;-76
2021/07/13 09:59:47;;;;;;;9.77;5.10;;;;;;;;;;4970087;28;20049;-76
2021/07/13 10:02:16;;;;;;;8.07;4.75;;;;;;;;;;4971416;28;20152;-76
2021/07/13 10:04:41;;;;;;;9.23;4.82;;;;;;;;;;4967402;28;20122;-75
2021/07/13 10:07:18;;;;;;;8.18;4.35;;;;;;;;;;4969532;28;20110;-76
2021/07/13 10:09:50;;;;;;;8.32;4.30;;;;;;;;;;4966968;28;20030;-76
2021/07/13 10:12:17;;;;;;;7.35;4.25;;;;;;;;;;4969718;28;20027;-76
2021/07/13 10:14:48;;;;;;;6.50;4.53;;;;;;;;;;4969087;28;20031;-75
2021/07/13 10:17:16;;;;;;;8.30;4.40;;;;;;;;;;4967223;28;20546;-75
2021/07/13 10:20:01;;;;;;;5.55;4.10;;;;;;;;;;4970414;28;20041;-75
2021/07/13 10:22:27;;;;;;;13.27;4.22;;;;;;;;;;4970587;28;20097;-76
2021/07/13 10:24:57;;;;;;;11.38;4.55;;;;;;;;;;4965238;28;20461;-76
2021/07/13 10:27:32;;;;;;;6.32;4.10;;;;;;;;;;4969462;28;20096;-77
2021/07/13 10:30:17;;;;;;;9.48;4.25;;;;;;;;;;4969598;28;20027;-75
2021/07/13 10:32:43;;;;;;;5.55;3.60;;;;;;;;;;4954417;28;20058;-76
2021/07/13 10:35:23;;;;;;;9.45;3.30;;;;;;;;;;4952216;28;20034;-76
2021/07/13 10:37:54;;;;;;;4.80;3.30;;;;;;;;;;4968682;28;20054;-75
2021/07/13 10:40:25;;;;;;;6.50;3.40;;;;;;;;;;4965336;28;20035;-75
2021/07/13 10:42:52;;;;;;;6.28;3.50;;;;;;;;;;4962139;28;20106;-75
2021/07/13 10:45:27;;;;;;;5.38;3.40;;;;;;;;;;4969894;28;20050;-75
2021/07/13 10:48:12;;;;;;;4.78;3.20;;;;;;;;;;4966875;28;20494;-75
2021/07/13 10:51:01;;;;;;;7.75;3.60;;;;;;;;;;4969384;28;20023;-75
2021/07/13 10:53:29;;;;;;;6.47;2.97;;;;;;;;;;4966577;28;20019;-76
2021/07/13 10:56:17;;;;;;;7.60;3.30;;;;;;;;;;4969033;28;20050;-75
2021/07/13 10:58:44;;;;;;;7.40;3.90;;;;;;;;;;4968696;28;20448;-76
2021/07/13 11:01:14;;;;;;;6.07;3.47;;;;;;;;;;4969955;28;20034;-75
2021/07/13 11:03:39;;;;;;;6.10;3.53;;;;;;;;;;4968708;28;20031;-75
2021/07/13 11:06:14;;;;;;;5.35;3.55;;;;;;;;;;4967492;28;20045;-75
2021/07/13 11:11:32;;;;;;;19.20;4.00;;;;;;;;;;4962911;28;20038;-75
2021/07/13 11:14:03;;;;;;;8.05;3.58;;;;;;;;;;4962093;28;20394;-76
2021/07/13 11:16:31;;;;;;;7.95;4.18;;;;;;;;;;4966090;28;20454;-75
2021/07/13 11:18:58;;;;;;;9.00;3.70;;;;;;;;;;4969784;28;20107;-75
2021/07/13 11:21:26;;;;;;;7.70;3.50;;;;;;;;;;4965178;28;20045;-75
2021/07/13 11:23:52;;;;;;;7.18;3.42;;;;;;;;;;4967044;28;20058;-76
2021/07/13 11:26:19;;;;;;;5.63;3.22;;;;;;;;;;4967419;28;20117;-75
2021/07/13 11:28:47;;;;;;;4.88;3.47;;;;;;;;;;4968108;28;20027;-75
2021/07/13 11:31:20;;;;;;;7.10;3.40;;;;;;;;;;4969018;28;20031;-75
2021/07/13 11:33:56;;;;;;;8.90;3.70;;;;;;;;;;4963522;28;20025;-75
2021/07/13 11:36:26;;;;;;;7.93;4.10;;;;;;;;;;4941946;28;20075;-75
2021/07/13 11:38:53;;;;;;;6.57;3.53;;;;;;;;;;4967330;28;20042;-75
2021/07/13 11:41:19;;;;;;;6.82;3.97;;;;;;;;;;4960786;28;20045;-75
2021/07/13 11:43:53;;;;;;;5.53;3.50;;;;;;;;;;4964538;28;20055;-74
2021/07/13 11:46:21;;;;;;;7.43;2.85;;;;;;;;;;4968740;28;20034;-75
2021/07/13 11:49:01;;;;;;;6.50;3.55;;;;;;;;;;4969961;28;20437;-75
2021/07/13 11:51:31;;;;;;;10.10;3.63;;;;;;;;;;4963615;28;20193;-75
2021/07/13 11:54:06;;;;;;;6.25;4.03;;;;;;;;;;4965074;28;20026;-75
2021/07/13 11:56:32;;;;;;;8.27;4.13;;;;;;;;;;4966667;28;20022;-74
2021/07/13 11:58:59;;;;;;;7.82;3.90;;;;;;;;;;4968270;28;20030;-75
2021/07/13 12:01:27;;;;;;;6.95;4.50;;;;;;;;;;4967637;28;20035;-73
2021/07/13 12:03:54;;;;;;;6.57;4.00;;;;;;;;;;4968969;28;20027;-75
2021/07/13 12:06:22;;;;;;;6.93;4.07;;;;;;;;;;4969145;28;20063;-74
2021/07/13 12:08:59;;;;;;;6.18;4.47;;;;;;;;;;4963236;28;20039;-74
2021/07/13 12:11:32;;;;;;;7.63;4.80;;;;;;;;;;4967592;28;20038;-75
2021/07/13 12:14:00;;;;;;;8.35;4.70;;;;;;;;;;4965952;28;20512;-75
2021/07/13 12:16:31;;;;;;;6.35;4.43;;;;;;;;;;4967908;28;20046;-74
2021/07/13 12:19:03;;;;;;;8.93;4.85;;;;;;;;;;4967526;28;20038;-74
2021/07/13 12:21:30;;;;;;;;;;;;;;;;;;4968176;28;20058;-75
2021/07/13 12:23:57;;;;;;;7.32;4.22;;;;;;;;;;4966700;28;20391;-76
2021/07/13 12:26:32;;;;;;;8.45;4.43;;;;;;;;;;4966011;28;20039;-76
2021/07/13 12:29:12;;;;;;;9.77;4.30;;;;;;;;;;4963678;28;20426;-75
2021/07/13 12:31:50;;;;;;;7.00;4.43;;;;;;;;;;4964949;28;20019;-76
2021/07/13 12:34:22;;;;;;;13.88;4.65;;;;;;;;;;4964396;28;20023;-76
2021/07/13 12:37:03;;;;;;;7.88;4.13;;;;;;;;;;4971956;28;20023;-75
2021/07/13 12:39:29;;;;;;;5.03;4.22;;;;;;;;;;4970864;28;20039;-75
2021/07/13 12:42:03;;;;;;;9.05;4.18;;;;;;;;;;4968660;28;20042;-75
2021/07/13 12:44:34;;;;;;;10.15;4.40;;;;;;;;;;4970580;28;20030;-75
2021/07/13 12:47:27;;;;;;;7.33;4.30;;;;;;;;;;4967384;28;20042;-75
2021/07/13 12:50:17;;;;;;;8.65;4.70;;;;;;;;;;4956120;28;20398;-75
2021/07/13 12:52:43;;;;;;;6.47;4.63;;;;;;;;;;4971550;28;20010;-75
2021/07/13 12:55:37;;;;;;;8.27;4.93;;;;;;;;;;4971487;28;20069;-76
2021/07/13 12:58:23;;;;;;;8.23;5.28;;;;;;;;;;4969216;28;20037;-75
2021/07/13 13:00:54;;;;;;;9.38;4.93;;;;;;;;;;4969219;28;20117;-75
2021/07/13 13:03:29;;;;;;;7.50;5.15;;;;;;;;;;4964570;28;20424;-74
2021/07/13 13:06:00;;;;;;;7.15;5.60;;;;;;;;;;4971335;28;20111;-74
2021/07/13 13:08:31;;;;;;;8.43;4.93;;;;;;;;;;4968955;28;20085;-75
2021/07/13 13:11:07;;;;;;;5.30;4.43;;;;;;;;;;4971596;28;20011;-75
2021/07/13 13:13:39;;;;;;;9.40;4.40;;;;;;;;;;4972555;28;20267;-83
2021/07/13 13:16:07;;;;;;;6.72;4.53;;;;;;;;;;4972672;28;20075;-83
2021/07/13 13:18:33;;;;;;;17.08;4.45;;;;;;;;;;4972070;28;20509;-82
2021/07/13 13:20:59;;;;;;;9.88;4.50;;;;;;;;;;4966084;28;20050;-81
2021/07/13 13:23:28;;;;;;;5.60;3.55;;;;;;;;;;4966116;28;20023;-82
2021/07/13 13:25:53;;;;;;;7.13;3.90;;;;;;;;;;4972727;28;20525;-82
2021/07/13 13:28:19;;;;;;;7.10;3.50;;;;;;;;;;4968802;28;20126;-82
2021/07/13 13:30:45;;;;;;;6.60;3.80;;;;;;;;;;4971981;28;20027;-81
2021/07/13 13:33:13;;;;;;;7.63;4.07;;;;;;;;;;4954828;28;20034;-83
2021/07/13 13:38:47;;;;;;;7.20;3.20;;;;;;;;;;4968674;28;20140;-81
2021/07/13 13:41:11;;;;;;;11.75;3.88;;;;;;;;;;4971753;28;20653;-81
2021/07/13 13:43:37;;;;;;;4.10;2.63;;;;;;;;;;4969979;28;20461;-74
2021/07/13 13:46:03;;;;;;;4.45;3.13;;;;;;;;;;4969426;28;20026;-75
2021/07/13 13:48:28;;;;;;;4.90;3.25;;;;;;;;;;4970534;28;20478;-74
2021/07/13 13:50:54;;;;;;;5.88;3.58;;;;;;;;;;4965586;28;20042;-75
2021/07/13 13:53:20;;;;;;;5.63;3.40;;;;;;;;;;4969923;28;20026;-75
2021/07/13 13:55:45;;;;;;;5.57;2.97;;;;;;;;;;4968546;28;20453;-75
2021/07/13 13:58:11;;;;;;;4.95;3.00;;;;;;;;;;4969301;28;20019;-75
2021/07/13 14:00:36;;;;;;;2.90;2.60;;;;;;;;;;4971291;28;20034;-75
2021/07/13 14:03:02;;;;;;;5.28;3.58;;;;;;;;;;4970426;28;20034;-75
2021/07/13 14:05:28;;;;;;;4.32;3.45;;;;;;;;;;4969544;28;20029;-75
2021/07/13 14:07:53;;;;;;;5.82;3.30;;;;;;;;;;4953301;28;20046;-75
2021/07/13 14:10:20;;;;;;;4.97;3.28;;;;;;;;;;4965593;28;20111;-77
2021/07/13 14:12:46;;;;;;;3.40;3.10;;;;;;;;;;4964126;28;20031;-75
2021/07/13 14:15:13;;;;;;;5.00;3.10;;;;;;;;;;4974730;28;20035;-75
2021/07/13 14:17:40;;;;;;;4.20;3.17;;;;;;;;;;4964887;28;20066;-76
2021/07/13 14:20:08;;;;;;;4.53;3.08;;;;;;;;;;4966308;28;20147;-76
2021/07/13 14:22:34;;;;;;;4.68;2.63;;;;;;;;;;4967623;28;20498;-75
2021/07/13 14:25:00;;;;;;;3.15;2.25;;;;;;;;;;4969887;28;20647;-75
2021/07/13 14:27:25;;;;;;;3.10;2.40;;;;;;;;;;4965711;28;20140;-75
2021/07/13 14:29:51;;;;;;;3.17;2.17;;;;;;;;;;4968527;28;20043;-75
2021/07/13 14:32:16;;;;;;;3.22;2.15;;;;;;;;;;4971086;28;20038;-75
2021/07/13 14:34:42;;;;;;;4.13;2.30;;;;;;;;;;4970567;28;20023;-76
2021/07/13 14:37:08;;;;;;;3.67;2.45;;;;;;;;;;4968100;28;20459;-75
2021/07/13 14:39:33;;;;;;;4.05;2.30;;;;;;;;;;4970271;28;20094;-75
2021/07/13 14:41:59;;;;;;;2.88;2.25;;;;;;;;;;4969864;28;20034;-75
2021/07/13 14:44:24;;;;;;;6.68;2.47;;;;;;;;;;4964423;28;20034;-75
2021/07/13 14:46:50;;;;;;;3.33;2.40;;;;;;;;;;4964248;28;20035;-74
2021/07/13 14:49:15;;;;;;;3.10;2.50;;;;;;;;;;4969960;28;20453;-74
2021/07/13 14:51:41;;;;;;;2.53;2.33;;;;;;;;;;4969264;28;20031;-74